sensor_id;sensor_type;location;lat;lon;timestamp;P1;durP1;ratioP1;P2;durP2;ratioP2
57327;SDS011;43162;51.040;18.244;2022-09-20T00:01:05;3.00;;;1.60;;
57327;SDS011;43162;51.040;18.244;2022-09-20T00:03:32;3.70;;;1.80;;
57327;SDS011;43162;51.040;18.244;2022-09-20T00:06:00;3.20;;;1.70;;
57327;SDS011;43162;51.040;18.244;2022-09-20T00:08:26;5.20;;;1.80;;
57327;SDS011;43162;51.040;18.244;2022-09-20T00:11:00;5.30;;;2.00;;
57327;SDS011;43162;51.040;18.244;2022-09-20T00:13:26;2.80;;;1.40;;
57327;SDS011;43162;51.040;18.244;2022-09-20T00:15:52;3.50;;;2.10;;
57327;SDS011;43162;51.040;18.244;2022-09-20T00:18:18;4.70;;;2.10;;
57327;SDS011;43162;51.040;18.244;2022-09-20T00:20:44;3.40;;;2.00;;
57327;SDS011;43162;51.040;18.244;2022-09-20T00:23:11;4.70;;;2.00;;
57327;SDS011;43162;51.040;18.244;2022-09-20T00:25:36;5.10;;;2.50;;
57327;SDS011;43162;51.040;18.244;2022-09-20T00:28:02;3.40;;;2.00;;
57327;SDS011;43162;51.040;18.244;2022-09-20T00:30:27;3.50;;;1.90;;
57327;SDS011;43162;51.040;18.244;2022-09-20T00:32:55;3.80;;;2.00;;
57327;SDS011;43162;51.040;18.244;2022-09-20T00:35:20;4.50;;;2.00;;
57327;SDS011;43162;51.040;18.244;2022-09-20T00:37:46;3.70;;;2.20;;
57327;SDS011;43162;51.040;18.244;2022-09-20T00:40:13;5.90;;;2.60;;
57327;SDS011;43162;51.040;18.244;2022-09-20T00:42:48;3.80;;;2.30;;
57327;SDS011;43162;51.040;18.244;2022-09-20T00:47:51;3.50;;;2.30;;
57327;SDS011;43162;51.040;18.244;2022-09-20T00:50:36;7.00;;;2.40;;
57327;SDS011;43162;51.040;18.244;2022-09-20T00:53:09;4.90;;;2.60;;
57327;SDS011;43162;51.040;18.244;2022-09-20T00:55:39;5.00;;;2.30;;
57327;SDS011;43162;51.040;18.244;2022-09-20T00:58:16;4.20;;;2.60;;
57327;SDS011;43162;51.040;18.244;2022-09-20T01:00:43;4.10;;;2.40;;
57327;SDS011;43162;51.040;18.244;2022-09-20T01:03:10;4.40;;;2.90;;
57327;SDS011;43162;51.040;18.244;2022-09-20T01:05:37;5.10;;;2.90;;
57327;SDS011;43162;51.040;18.244;2022-09-20T01:08:03;3.90;;;2.20;;
57327;SDS011;43162;51.040;18.244;2022-09-20T01:10:30;4.70;;;2.40;;
57327;SDS011;43162;51.040;18.244;2022-09-20T01:12:56;3.50;;;2.20;;
57327;SDS011;43162;51.040;18.244;2022-09-20T01:15:22;4.30;;;2.20;;
57327;SDS011;43162;51.040;18.244;2022-09-20T01:17:52;6.10;;;2.30;;
57327;SDS011;43162;51.040;18.244;2022-09-20T01:20:21;4.00;;;2.40;;
57327;SDS011;43162;51.040;18.244;2022-09-20T01:28:42;3.90;;;2.30;;
57327;SDS011;43162;51.040;18.244;2022-09-20T01:33:49;4.40;;;2.00;;
57327;SDS011;43162;51.040;18.244;2022-09-20T01:36:24;5.70;;;2.40;;
57327;SDS011;43162;51.040;18.244;2022-09-20T01:41:57;5.20;;;2.40;;
57327;SDS011;43162;51.040;18.244;2022-09-20T01:50:11;4.90;;;2.50;;
57327;SDS011;43162;51.040;18.244;2022-09-20T01:58:53;5.80;;;3.20;;
57327;SDS011;43162;51.040;18.244;2022-09-20T02:01:46;4.80;;;3.30;;
57327;SDS011;43162;51.040;18.244;2022-09-20T02:15:13;5.20;;;3.10;;
57327;SDS011;43162;51.040;18.244;2022-09-20T02:20:47;5.00;;;3.10;;
57327;SDS011;43162;51.040;18.244;2022-09-20T02:23:25;6.40;;;3.70;;
57327;SDS011;43162;51.040;18.244;2022-09-20T02:26:02;7.00;;;3.50;;
57327;SDS011;43162;51.040;18.244;2022-09-20T02:28:52;7.20;;;3.70;;
57327;SDS011;43162;51.040;18.244;2022-09-20T02:31:27;5.60;;;3.60;;
57327;SDS011;43162;51.040;18.244;2022-09-20T02:34:17;7.20;;;3.40;;
57327;SDS011;43162;51.040;18.244;2022-09-20T02:37:10;6.90;;;3.80;;
57327;SDS011;43162;51.040;18.244;2022-09-20T02:40:05;7.90;;;4.50;;
57327;SDS011;43162;51.040;18.244;2022-09-20T02:45:47;5.60;;;4.10;;
57327;SDS011;43162;51.040;18.244;2022-09-20T02:48:23;5.00;;;3.30;;
57327;SDS011;43162;51.040;18.244;2022-09-20T02:53:48;5.20;;;3.60;;
57327;SDS011;43162;51.040;18.244;2022-09-20T02:56:23;5.30;;;3.30;;
57327;SDS011;43162;51.040;18.244;2022-09-20T02:59:15;6.10;;;3.50;;
57327;SDS011;43162;51.040;18.244;2022-09-20T03:10:05;5.90;;;3.50;;
57327;SDS011;43162;51.040;18.244;2022-09-20T03:15:47;4.60;;;3.60;;
57327;SDS011;43162;51.040;18.244;2022-09-20T03:18:32;5.30;;;3.50;;
57327;SDS011;43162;51.040;18.244;2022-09-20T03:21:14;3.80;;;3.10;;
57327;SDS011;43162;51.040;18.244;2022-09-20T03:42:34;4.60;;;2.90;;
57327;SDS011;43162;51.040;18.244;2022-09-20T03:53:33;4.30;;;3.00;;
57327;SDS011;43162;51.040;18.244;2022-09-20T04:01:33;4.90;;;3.00;;
57327;SDS011;43162;51.040;18.244;2022-09-20T04:18:34;3.50;;;2.20;;
57327;SDS011;43162;51.040;18.244;2022-09-20T04:21:25;4.20;;;2.40;;
57327;SDS011;43162;51.040;18.244;2022-09-20T04:24:01;4.00;;;2.50;;
57327;SDS011;43162;51.040;18.244;2022-09-20T04:26:39;4.30;;;2.50;;
57327;SDS011;43162;51.040;18.244;2022-09-20T04:34:47;5.00;;;3.10;;
57327;SDS011;43162;51.040;18.244;2022-09-20T04:37:55;5.50;;;3.70;;
57327;SDS011;43162;51.040;18.244;2022-09-20T04:40:33;6.30;;;4.10;;
57327;SDS011;43162;51.040;18.244;2022-09-20T05:29:32;2.30;;;3.70;;
57327;SDS011;43162;51.040;18.244;2022-09-20T05:32:02;8.00;;;2.70;;
57327;SDS011;43162;51.040;18.244;2022-09-20T05:34:47;5.30;;;3.00;;
57327;SDS011;43162;51.040;18.244;2022-09-20T05:37:43;5.70;;;2.80;;
57327;SDS011;43162;51.040;18.244;2022-09-20T05:40:19;4.70;;;2.90;;
57327;SDS011;43162;51.040;18.244;2022-09-20T05:45:45;4.60;;;2.70;;
57327;SDS011;43162;51.040;18.244;2022-09-20T05:51:05;4.60;;;2.50;;
57327;SDS011;43162;51.040;18.244;2022-09-20T05:53:43;6.50;;;2.50;;
57327;SDS011;43162;51.040;18.244;2022-09-20T05:56:34;3.20;;;2.20;;
57327;SDS011;43162;51.040;18.244;2022-09-20T06:10:32;6.70;;;3.20;;
57327;SDS011;43162;51.040;18.244;2022-09-20T06:16:00;5.70;;;3.30;;
57327;SDS011;43162;51.040;18.244;2022-09-20T06:23:41;6.50;;;3.50;;
57327;SDS011;43162;51.040;18.244;2022-09-20T06:26:09;5.30;;;3.40;;
57327;SDS011;43162;51.040;18.244;2022-09-20T06:28:53;5.60;;;3.50;;
57327;SDS011;43162;51.040;18.244;2022-09-20T06:31:20;5.30;;;3.40;;
57327;SDS011;43162;51.040;18.244;2022-09-20T06:33:56;8.60;;;4.50;;
57327;SDS011;43162;51.040;18.244;2022-09-20T06:36:30;5.90;;;3.90;;
57327;SDS011;43162;51.040;18.244;2022-09-20T06:42:19;7.40;;;4.20;;
57327;SDS011;43162;51.040;18.244;2022-09-20T06:44:45;7.30;;;4.00;;
57327;SDS011;43162;51.040;18.244;2022-09-20T06:47:14;7.90;;;4.50;;
57327;SDS011;43162;51.040;18.244;2022-09-20T06:49:40;6.40;;;3.60;;
57327;SDS011;43162;51.040;18.244;2022-09-20T06:52:13;6.60;;;3.90;;
57327;SDS011;43162;51.040;18.244;2022-09-20T06:54:44;5.50;;;3.60;;
57327;SDS011;43162;51.040;18.244;2022-09-20T06:57:14;8.30;;;3.60;;
57327;SDS011;43162;51.040;18.244;2022-09-20T06:59:42;6.70;;;4.00;;
57327;SDS011;43162;51.040;18.244;2022-09-20T07:02:09;7.00;;;4.20;;
57327;SDS011;43162;51.040;18.244;2022-09-20T07:04:36;7.00;;;4.00;;
57327;SDS011;43162;51.040;18.244;2022-09-20T07:07:03;7.70;;;4.30;;
57327;SDS011;43162;51.040;18.244;2022-09-20T07:09:29;6.90;;;4.40;;
57327;SDS011;43162;51.040;18.244;2022-09-20T07:11:55;7.50;;;4.70;;
57327;SDS011;43162;51.040;18.244;2022-09-20T07:14:23;7.10;;;3.90;;
57327;SDS011;43162;51.040;18.244;2022-09-20T07:16:51;7.30;;;4.00;;
57327;SDS011;43162;51.040;18.244;2022-09-20T07:19:20;8.10;;;4.20;;
57327;SDS011;43162;51.040;18.244;2022-09-20T07:21:51;5.70;;;3.40;;
57327;SDS011;43162;51.040;18.244;2022-09-20T07:24:17;6.60;;;3.50;;
57327;SDS011;43162;51.040;18.244;2022-09-20T07:26:54;6.20;;;3.50;;
57327;SDS011;43162;51.040;18.244;2022-09-20T07:29:22;6.00;;;3.50;;
57327;SDS011;43162;51.040;18.244;2022-09-20T07:31:48;5.70;;;3.20;;
57327;SDS011;43162;51.040;18.244;2022-09-20T07:34:15;6.40;;;3.70;;
57327;SDS011;43162;51.040;18.244;2022-09-20T07:36:48;6.50;;;3.00;;
57327;SDS011;43162;51.040;18.244;2022-09-20T07:39:16;8.30;;;3.40;;
57327;SDS011;43162;51.040;18.244;2022-09-20T07:41:42;6.50;;;3.60;;
57327;SDS011;43162;51.040;18.244;2022-09-20T07:44:14;5.70;;;2.90;;
57327;SDS011;43162;51.040;18.244;2022-09-20T07:46:55;5.60;;;2.70;;
57327;SDS011;43162;51.040;18.244;2022-09-20T07:49:24;4.40;;;2.60;;
57327;SDS011;43162;51.040;18.244;2022-09-20T07:51:52;7.30;;;3.40;;
57327;SDS011;43162;51.040;18.244;2022-09-20T07:54:18;5.90;;;2.90;;
57327;SDS011;43162;51.040;18.244;2022-09-20T07:56:44;6.10;;;2.50;;
57327;SDS011;43162;51.040;18.244;2022-09-20T07:59:10;4.50;;;2.40;;
57327;SDS011;43162;51.040;18.244;2022-09-20T08:01:37;6.00;;;3.10;;
57327;SDS011;43162;51.040;18.244;2022-09-20T08:04:03;4.60;;;2.80;;
57327;SDS011;43162;51.040;18.244;2022-09-20T08:06:30;5.50;;;2.60;;
57327;SDS011;43162;51.040;18.244;2022-09-20T08:08:57;6.00;;;2.60;;
57327;SDS011;43162;51.040;18.244;2022-09-20T08:11:32;3.30;;;2.30;;
57327;SDS011;43162;51.040;18.244;2022-09-20T08:13:58;6.50;;;2.90;;
57327;SDS011;43162;51.040;18.244;2022-09-20T08:16:26;6.60;;;2.80;;
57327;SDS011;43162;51.040;18.244;2022-09-20T08:18:53;3.90;;;2.10;;
57327;SDS011;43162;51.040;18.244;2022-09-20T08:21:22;4.60;;;2.10;;
57327;SDS011;43162;51.040;18.244;2022-09-20T08:23:59;5.00;;;2.10;;
57327;SDS011;43162;51.040;18.244;2022-09-20T08:26:28;6.00;;;2.20;;
57327;SDS011;43162;51.040;18.244;2022-09-20T08:28:56;3.80;;;2.30;;
57327;SDS011;43162;51.040;18.244;2022-09-20T08:31:24;3.30;;;1.70;;
57327;SDS011;43162;51.040;18.244;2022-09-20T08:34:01;5.30;;;2.10;;
57327;SDS011;43162;51.040;18.244;2022-09-20T08:36:33;4.00;;;1.80;;
57327;SDS011;43162;51.040;18.244;2022-09-20T08:39:00;4.30;;;2.00;;
57327;SDS011;43162;51.040;18.244;2022-09-20T08:41:28;3.70;;;1.70;;
57327;SDS011;43162;51.040;18.244;2022-09-20T08:43:57;4.90;;;1.80;;
57327;SDS011;43162;51.040;18.244;2022-09-20T08:46:26;4.50;;;1.90;;
57327;SDS011;43162;51.040;18.244;2022-09-20T08:48:56;3.40;;;1.50;;
57327;SDS011;43162;51.040;18.244;2022-09-20T08:51:26;3.00;;;1.70;;
57327;SDS011;43162;51.040;18.244;2022-09-20T08:53:55;3.10;;;1.40;;
57327;SDS011;43162;51.040;18.244;2022-09-20T08:56:25;5.60;;;1.80;;
57327;SDS011;43162;51.040;18.244;2022-09-20T08:58:53;5.10;;;2.00;;
57327;SDS011;43162;51.040;18.244;2022-09-20T09:01:21;4.20;;;1.60;;
57327;SDS011;43162;51.040;18.244;2022-09-20T09:03:52;4.20;;;1.60;;
57327;SDS011;43162;51.040;18.244;2022-09-20T09:06:23;4.70;;;2.10;;
57327;SDS011;43162;51.040;18.244;2022-09-20T09:08:49;3.30;;;1.40;;
57327;SDS011;43162;51.040;18.244;2022-09-20T09:11:16;2.20;;;1.40;;
57327;SDS011;43162;51.040;18.244;2022-09-20T09:16:23;3.90;;;1.50;;
57327;SDS011;43162;51.040;18.244;2022-09-20T09:18:51;4.50;;;1.50;;
57327;SDS011;43162;51.040;18.244;2022-09-20T09:21:21;3.30;;;1.50;;
57327;SDS011;43162;51.040;18.244;2022-09-20T09:24:03;3.00;;;1.30;;
57327;SDS011;43162;51.040;18.244;2022-09-20T09:26:35;2.80;;;1.00;;
57327;SDS011;43162;51.040;18.244;2022-09-20T09:29:13;3.30;;;1.20;;
57327;SDS011;43162;51.040;18.244;2022-09-20T09:31:45;2.90;;;1.30;;
57327;SDS011;43162;51.040;18.244;2022-09-20T09:34:26;2.20;;;1.10;;
57327;SDS011;43162;51.040;18.244;2022-09-20T09:36:54;4.30;;;1.20;;
57327;SDS011;43162;51.040;18.244;2022-09-20T09:41:53;3.40;;;1.30;;
57327;SDS011;43162;51.040;18.244;2022-09-20T09:44:24;2.70;;;1.10;;
57327;SDS011;43162;51.040;18.244;2022-09-20T09:46:52;2.60;;;0.90;;
57327;SDS011;43162;51.040;18.244;2022-09-20T09:49:25;2.60;;;1.00;;
57327;SDS011;43162;51.040;18.244;2022-09-20T09:51:59;3.40;;;1.40;;
57327;SDS011;43162;51.040;18.244;2022-09-20T09:54:30;2.60;;;1.10;;
57327;SDS011;43162;51.040;18.244;2022-09-20T10:30:21;3.00;;;1.00;;
57327;SDS011;43162;51.040;18.244;2022-09-20T10:32:51;3.80;;;1.40;;
57327;SDS011;43162;51.040;18.244;2022-09-20T10:40:46;2.90;;;1.10;;
57327;SDS011;43162;51.040;18.244;2022-09-20T10:49:35;2.30;;;0.90;;
57327;SDS011;43162;51.040;18.244;2022-09-20T10:52:15;2.20;;;0.90;;
57327;SDS011;43162;51.040;18.244;2022-09-20T11:00:03;1.90;;;0.80;;
57327;SDS011;43162;51.040;18.244;2022-09-20T11:05:42;2.10;;;0.70;;
57327;SDS011;43162;51.040;18.244;2022-09-20T11:08:18;2.40;;;0.80;;
57327;SDS011;43162;51.040;18.244;2022-09-20T11:18:55;2.60;;;0.90;;
57327;SDS011;43162;51.040;18.244;2022-09-20T11:21:31;3.70;;;0.80;;
57327;SDS011;43162;51.040;18.244;2022-09-20T11:24:04;6.50;;;1.10;;
57327;SDS011;43162;51.040;18.244;2022-09-20T11:26:50;1.90;;;0.60;;
57327;SDS011;43162;51.040;18.244;2022-09-20T11:29:27;2.30;;;0.80;;
57327;SDS011;43162;51.040;18.244;2022-09-20T11:32:07;3.60;;;0.80;;
57327;SDS011;43162;51.040;18.244;2022-09-20T11:34:49;3.50;;;0.90;;
57327;SDS011;43162;51.040;18.244;2022-09-20T11:37:18;3.50;;;0.80;;
57327;SDS011;43162;51.040;18.244;2022-09-20T11:42:48;2.10;;;0.90;;
57327;SDS011;43162;51.040;18.244;2022-09-20T11:48:25;3.90;;;1.10;;
57327;SDS011;43162;51.040;18.244;2022-09-20T11:56:58;2.70;;;0.70;;
57327;SDS011;43162;51.040;18.244;2022-09-20T11:59:27;1.50;;;0.90;;
57327;SDS011;43162;51.040;18.244;2022-09-20T12:02:00;2.40;;;1.00;;
57327;SDS011;43162;51.040;18.244;2022-09-20T12:04:33;3.50;;;1.10;;
57327;SDS011;43162;51.040;18.244;2022-09-20T12:07:01;3.10;;;1.00;;
57327;SDS011;43162;51.040;18.244;2022-09-20T12:09:41;2.60;;;0.70;;
57327;SDS011;43162;51.040;18.244;2022-09-20T12:15:00;1.70;;;0.90;;
57327;SDS011;43162;51.040;18.244;2022-09-20T12:28:50;1.70;;;1.10;;
57327;SDS011;43162;51.040;18.244;2022-09-20T12:36:24;2.80;;;1.30;;
57327;SDS011;43162;51.040;18.244;2022-09-20T12:41:26;3.70;;;1.80;;
57327;SDS011;43162;51.040;18.244;2022-09-20T12:43:57;2.00;;;1.20;;
57327;SDS011;43162;51.040;18.244;2022-09-20T12:46:31;2.40;;;1.50;;
57327;SDS011;43162;51.040;18.244;2022-09-20T12:49:09;2.40;;;1.50;;
57327;SDS011;43162;51.040;18.244;2022-09-20T12:51:59;4.60;;;1.40;;
57327;SDS011;43162;51.040;18.244;2022-09-20T12:54:48;3.60;;;2.10;;
57327;SDS011;43162;51.040;18.244;2022-09-20T12:57:25;3.30;;;1.50;;
57327;SDS011;43162;51.040;18.244;2022-09-20T12:59:55;5.00;;;2.10;;
57327;SDS011;43162;51.040;18.244;2022-09-20T13:07:53;6.90;;;1.30;;
57327;SDS011;43162;51.040;18.244;2022-09-20T13:10:28;2.40;;;1.10;;
57327;SDS011;43162;51.040;18.244;2022-09-20T13:12:59;2.80;;;1.10;;
57327;SDS011;43162;51.040;18.244;2022-09-20T13:15:28;2.10;;;1.20;;
57327;SDS011;43162;51.040;18.244;2022-09-20T13:17:54;2.80;;;1.40;;
57327;SDS011;43162;51.040;18.244;2022-09-20T13:20:25;3.60;;;1.50;;
57327;SDS011;43162;51.040;18.244;2022-09-20T13:22:55;4.50;;;1.20;;
57327;SDS011;43162;51.040;18.244;2022-09-20T13:25:22;1.90;;;0.90;;
57327;SDS011;43162;51.040;18.244;2022-09-20T13:28:09;3.20;;;1.00;;
57327;SDS011;43162;51.040;18.244;2022-09-20T13:30:41;2.00;;;0.70;;
57327;SDS011;43162;51.040;18.244;2022-09-20T13:33:14;1.90;;;0.80;;
57327;SDS011;43162;51.040;18.244;2022-09-20T13:35:41;2.80;;;1.00;;
57327;SDS011;43162;51.040;18.244;2022-09-20T13:38:09;3.00;;;1.40;;
57327;SDS011;43162;51.040;18.244;2022-09-20T13:40:42;2.50;;;1.30;;
57327;SDS011;43162;51.040;18.244;2022-09-20T13:46:11;3.40;;;1.20;;
57327;SDS011;43162;51.040;18.244;2022-09-20T13:48:42;10.90;;;2.00;;
57327;SDS011;43162;51.040;18.244;2022-09-20T13:51:19;2.10;;;0.80;;
57327;SDS011;43162;51.040;18.244;2022-09-20T13:53:52;2.60;;;0.80;;
57327;SDS011;43162;51.040;18.244;2022-09-20T13:56:25;2.20;;;0.90;;
57327;SDS011;43162;51.040;18.244;2022-09-20T13:58:53;2.20;;;1.10;;
57327;SDS011;43162;51.040;18.244;2022-09-20T14:01:26;4.40;;;0.90;;
57327;SDS011;43162;51.040;18.244;2022-09-20T14:03:57;1.40;;;0.90;;
57327;SDS011;43162;51.040;18.244;2022-09-20T14:06:29;2.80;;;1.00;;
57327;SDS011;43162;51.040;18.244;2022-09-20T14:08:56;2.70;;;1.20;;
57327;SDS011;43162;51.040;18.244;2022-09-20T14:11:28;2.40;;;0.90;;
57327;SDS011;43162;51.040;18.244;2022-09-20T14:14:02;5.70;;;3.10;;
57327;SDS011;43162;51.040;18.244;2022-09-20T14:16:30;6.90;;;2.00;;
57327;SDS011;43162;51.040;18.244;2022-09-20T14:19:01;5.40;;;1.90;;
57327;SDS011;43162;51.040;18.244;2022-09-20T14:21:30;2.70;;;1.30;;
57327;SDS011;43162;51.040;18.244;2022-09-20T14:23:58;3.60;;;1.40;;
57327;SDS011;43162;51.040;18.244;2022-09-20T14:26:29;2.10;;;1.20;;
57327;SDS011;43162;51.040;18.244;2022-09-20T14:31:52;3.90;;;1.10;;
57327;SDS011;43162;51.040;18.244;2022-09-20T14:34:18;1.70;;;0.80;;
57327;SDS011;43162;51.040;18.244;2022-09-20T14:36:44;1.80;;;0.90;;
57327;SDS011;43162;51.040;18.244;2022-09-20T14:39:13;3.40;;;0.80;;
57327;SDS011;43162;51.040;18.244;2022-09-20T14:41:41;1.20;;;0.70;;
57327;SDS011;43162;51.040;18.244;2022-09-20T14:46:51;5.20;;;2.90;;
57327;SDS011;43162;51.040;18.244;2022-09-20T14:51:51;9.90;;;2.80;;
57327;SDS011;43162;51.040;18.244;2022-09-20T14:54:28;4.00;;;1.30;;
57327;SDS011;43162;51.040;18.244;2022-09-20T14:57:00;4.10;;;1.50;;
57327;SDS011;43162;51.040;18.244;2022-09-20T14:59:27;2.60;;;1.60;;
57327;SDS011;43162;51.040;18.244;2022-09-20T15:04:32;1.60;;;0.80;;
57327;SDS011;43162;51.040;18.244;2022-09-20T15:07:06;1.50;;;0.60;;
57327;SDS011;43162;51.040;18.244;2022-09-20T15:09:35;3.90;;;1.10;;
57327;SDS011;43162;51.040;18.244;2022-09-20T15:12:01;4.40;;;1.10;;
57327;SDS011;43162;51.040;18.244;2022-09-20T15:14:37;3.40;;;1.00;;
57327;SDS011;43162;51.040;18.244;2022-09-20T15:17:05;2.90;;;0.70;;
57327;SDS011;43162;51.040;18.244;2022-09-20T15:19:33;2.50;;;1.10;;
57327;SDS011;43162;51.040;18.244;2022-09-20T15:21:59;2.30;;;1.00;;
57327;SDS011;43162;51.040;18.244;2022-09-20T15:24:25;4.20;;;1.00;;
57327;SDS011;43162;51.040;18.244;2022-09-20T15:26:51;2.40;;;0.90;;
57327;SDS011;43162;51.040;18.244;2022-09-20T15:29:17;1.80;;;0.80;;
57327;SDS011;43162;51.040;18.244;2022-09-20T15:31:45;1.40;;;0.60;;
57327;SDS011;43162;51.040;18.244;2022-09-20T15:34:18;1.20;;;0.40;;
57327;SDS011;43162;51.040;18.244;2022-09-20T15:37:21;1.60;;;0.60;;
57327;SDS011;43162;51.040;18.244;2022-09-20T15:40:03;2.00;;;0.60;;
57327;SDS011;43162;51.040;18.244;2022-09-20T15:42:31;1.30;;;0.60;;
57327;SDS011;43162;51.040;18.244;2022-09-20T15:45:10;1.40;;;0.70;;
57327;SDS011;43162;51.040;18.244;2022-09-20T15:47:38;2.30;;;0.80;;
57327;SDS011;43162;51.040;18.244;2022-09-20T15:50:26;2.20;;;0.70;;
57327;SDS011;43162;51.040;18.244;2022-09-20T15:52:57;2.20;;;0.60;;
57327;SDS011;43162;51.040;18.244;2022-09-20T15:55:25;1.70;;;0.70;;
57327;SDS011;43162;51.040;18.244;2022-09-20T15:57:50;1.60;;;0.70;;
57327;SDS011;43162;51.040;18.244;2022-09-20T16:00:17;8.60;;;1.10;;
57327;SDS011;43162;51.040;18.244;2022-09-20T16:02:47;2.70;;;0.80;;
57327;SDS011;43162;51.040;18.244;2022-09-20T16:05:44;2.60;;;0.70;;
57327;SDS011;43162;51.040;18.244;2022-09-20T16:08:37;8.60;;;1.00;;
57327;SDS011;43162;51.040;18.244;2022-09-20T16:11:37;4.50;;;0.90;;
57327;SDS011;43162;51.040;18.244;2022-09-20T16:14:13;7.10;;;0.80;;
57327;SDS011;43162;51.040;18.244;2022-09-20T16:16:57;4.90;;;1.50;;
57327;SDS011;43162;51.040;18.244;2022-09-20T16:19:43;12.20;;;1.40;;
57327;SDS011;43162;51.040;18.244;2022-09-20T16:22:12;21.20;;;2.30;;
57327;SDS011;43162;51.040;18.244;2022-09-20T16:24:39;1.30;;;0.70;;
57327;SDS011;43162;51.040;18.244;2022-09-20T16:27:08;1.50;;;0.70;;
57327;SDS011;43162;51.040;18.244;2022-09-20T16:29:37;3.90;;;0.90;;
57327;SDS011;43162;51.040;18.244;2022-09-20T16:32:03;1.80;;;0.90;;
57327;SDS011;43162;51.040;18.244;2022-09-20T16:34:33;2.70;;;1.00;;
57327;SDS011;43162;51.040;18.244;2022-09-20T16:37:04;2.70;;;1.10;;
57327;SDS011;43162;51.040;18.244;2022-09-20T16:39:33;1.70;;;1.00;;
57327;SDS011;43162;51.040;18.244;2022-09-20T16:42:00;3.90;;;1.20;;
57327;SDS011;43162;51.040;18.244;2022-09-20T16:44:34;2.00;;;1.00;;
57327;SDS011;43162;51.040;18.244;2022-09-20T16:47:02;4.00;;;1.20;;
57327;SDS011;43162;51.040;18.244;2022-09-20T16:49:34;2.30;;;1.10;;
57327;SDS011;43162;51.040;18.244;2022-09-20T16:52:00;3.10;;;1.00;;
57327;SDS011;43162;51.040;18.244;2022-09-20T16:54:29;2.90;;;1.00;;
57327;SDS011;43162;51.040;18.244;2022-09-20T16:56:58;1.90;;;1.00;;
57327;SDS011;43162;51.040;18.244;2022-09-20T16:59:47;2.60;;;1.10;;
57327;SDS011;43162;51.040;18.244;2022-09-20T17:02:29;2.00;;;0.90;;
57327;SDS011;43162;51.040;18.244;2022-09-20T17:04:54;2.30;;;1.30;;
57327;SDS011;43162;51.040;18.244;2022-09-20T17:07:20;2.60;;;1.60;;
57327;SDS011;43162;51.040;18.244;2022-09-20T17:09:48;3.30;;;1.80;;
57327;SDS011;43162;51.040;18.244;2022-09-20T17:12:14;5.10;;;2.00;;
57327;SDS011;43162;51.040;18.244;2022-09-20T17:14:50;3.80;;;2.40;;
57327;SDS011;43162;51.040;18.244;2022-09-20T17:17:18;4.30;;;2.50;;
57327;SDS011;43162;51.040;18.244;2022-09-20T17:19:46;6.10;;;2.50;;
57327;SDS011;43162;51.040;18.244;2022-09-20T17:22:12;5.10;;;2.50;;
57327;SDS011;43162;51.040;18.244;2022-09-20T17:24:37;6.00;;;2.50;;
57327;SDS011;43162;51.040;18.244;2022-09-20T17:27:03;4.40;;;2.40;;
57327;SDS011;43162;51.040;18.244;2022-09-20T17:29:30;5.50;;;2.30;;
57327;SDS011;43162;51.040;18.244;2022-09-20T17:31:55;3.20;;;1.80;;
57327;SDS011;43162;51.040;18.244;2022-09-20T17:34:24;5.70;;;2.70;;
57327;SDS011;43162;51.040;18.244;2022-09-20T17:36:51;6.80;;;2.70;;
57327;SDS011;43162;51.040;18.244;2022-09-20T17:39:19;6.60;;;2.70;;
57327;SDS011;43162;51.040;18.244;2022-09-20T17:41:45;5.10;;;2.80;;
57327;SDS011;43162;51.040;18.244;2022-09-20T17:44:14;5.00;;;2.90;;
57327;SDS011;43162;51.040;18.244;2022-09-20T17:46:44;5.00;;;3.20;;
57327;SDS011;43162;51.040;18.244;2022-09-20T17:49:15;6.10;;;3.40;;
57327;SDS011;43162;51.040;18.244;2022-09-20T17:51:48;7.10;;;3.20;;
57327;SDS011;43162;51.040;18.244;2022-09-20T17:54:15;6.30;;;2.80;;
57327;SDS011;43162;51.040;18.244;2022-09-20T17:56:46;5.10;;;2.80;;
57327;SDS011;43162;51.040;18.244;2022-09-20T17:59:18;4.60;;;2.70;;
57327;SDS011;43162;51.040;18.244;2022-09-20T18:01:45;3.70;;;2.50;;
57327;SDS011;43162;51.040;18.244;2022-09-20T18:04:12;5.00;;;2.60;;
57327;SDS011;43162;51.040;18.244;2022-09-20T18:06:45;5.00;;;2.90;;
57327;SDS011;43162;51.040;18.244;2022-09-20T18:09:16;4.60;;;2.90;;
57327;SDS011;43162;51.040;18.244;2022-09-20T18:11:43;7.40;;;3.60;;
57327;SDS011;43162;51.040;18.244;2022-09-20T18:14:13;5.60;;;3.60;;
57327;SDS011;43162;51.040;18.244;2022-09-20T18:16:39;6.90;;;3.80;;
57327;SDS011;43162;51.040;18.244;2022-09-20T18:19:05;7.30;;;3.80;;
57327;SDS011;43162;51.040;18.244;2022-09-20T18:21:34;7.20;;;3.90;;
57327;SDS011;43162;51.040;18.244;2022-09-20T18:24:03;11.30;;;3.80;;
57327;SDS011;43162;51.040;18.244;2022-09-20T18:26:30;5.60;;;3.60;;
57327;SDS011;43162;51.040;18.244;2022-09-20T18:31:29;6.40;;;4.30;;
57327;SDS011;43162;51.040;18.244;2022-09-20T18:33:57;6.20;;;4.20;;
57327;SDS011;43162;51.040;18.244;2022-09-20T18:36:26;8.00;;;4.90;;
57327;SDS011;43162;51.040;18.244;2022-09-20T18:38:53;10.10;;;5.70;;
57327;SDS011;43162;51.040;18.244;2022-09-20T18:41:26;8.80;;;5.50;;
57327;SDS011;43162;51.040;18.244;2022-09-20T18:43:56;7.40;;;5.50;;
57327;SDS011;43162;51.040;18.244;2022-09-20T18:46:25;8.80;;;5.50;;
57327;SDS011;43162;51.040;18.244;2022-09-20T18:52:11;8.10;;;5.80;;
57327;SDS011;43162;51.040;18.244;2022-09-20T18:54:41;9.80;;;6.40;;
57327;SDS011;43162;51.040;18.244;2022-09-20T18:57:09;9.40;;;6.60;;
57327;SDS011;43162;51.040;18.244;2022-09-20T19:02:34;8.70;;;6.20;;
57327;SDS011;43162;51.040;18.244;2022-09-20T19:13:32;11.70;;;7.30;;
57327;SDS011;43162;51.040;18.244;2022-09-20T19:26:50;9.80;;;7.10;;
57327;SDS011;43162;51.040;18.244;2022-09-20T19:29:20;13.30;;;7.80;;
57327;SDS011;43162;51.040;18.244;2022-09-20T19:31:50;10.70;;;6.90;;
57327;SDS011;43162;51.040;18.244;2022-09-20T19:34:19;10.60;;;6.80;;
57327;SDS011;43162;51.040;18.244;2022-09-20T19:39:28;8.50;;;5.80;;
57327;SDS011;43162;51.040;18.244;2022-09-20T19:53:14;9.80;;;5.90;;
57327;SDS011;43162;51.040;18.244;2022-09-20T19:55:43;9.70;;;6.30;;
57327;SDS011;43162;51.040;18.244;2022-09-20T19:58:11;11.40;;;6.40;;
57327;SDS011;43162;51.040;18.244;2022-09-20T20:00:38;10.90;;;6.80;;
57327;SDS011;43162;51.040;18.244;2022-09-20T20:03:05;9.90;;;6.70;;
57327;SDS011;43162;51.040;18.244;2022-09-20T20:05:31;10.60;;;6.70;;
57327;SDS011;43162;51.040;18.244;2022-09-20T20:16:16;10.00;;;6.10;;
57327;SDS011;43162;51.040;18.244;2022-09-20T20:18:57;11.20;;;6.30;;
57327;SDS011;43162;51.040;18.244;2022-09-20T20:27:09;7.00;;;4.00;;
57327;SDS011;43162;51.040;18.244;2022-09-20T20:29:38;6.50;;;3.40;;
57327;SDS011;43162;51.040;18.244;2022-09-20T20:32:05;9.20;;;3.60;;
57327;SDS011;43162;51.040;18.244;2022-09-20T20:34:31;4.90;;;2.90;;
57327;SDS011;43162;51.040;18.244;2022-09-20T20:36:57;6.80;;;2.90;;
57327;SDS011;43162;51.040;18.244;2022-09-20T20:39:27;5.20;;;2.30;;
57327;SDS011;43162;51.040;18.244;2022-09-20T20:41:59;5.10;;;2.60;;
57327;SDS011;43162;51.040;18.244;2022-09-20T20:44:26;5.50;;;2.40;;
57327;SDS011;43162;51.040;18.244;2022-09-20T20:46:52;4.00;;;2.10;;
57327;SDS011;43162;51.040;18.244;2022-09-20T20:49:18;3.60;;;1.90;;
57327;SDS011;43162;51.040;18.244;2022-09-20T20:51:45;4.00;;;1.80;;
57327;SDS011;43162;51.040;18.244;2022-09-20T20:54:11;4.40;;;2.10;;
57327;SDS011;43162;51.040;18.244;2022-09-20T20:56:38;4.10;;;2.10;;
57327;SDS011;43162;51.040;18.244;2022-09-20T20:59:04;4.60;;;2.20;;